Portada
METAR-TAF:

METAR-TAF

Aeroports :

Aeroport Internacional Maiquetía Simón Bolívar

Caracas, Veneçuela

latitud: 10-36N, longitud: 066-59W, altitud: 43 m

Observació

L'informe es va fer fa 41 minuts, a les 15:02 UTC
Vent 5 kt del Nord/Nord-Est
Temperatura
Pressió 1013 hPa

METAR: SVMI 011502Z AUTO 03005KT NCD ///// Q1013

Hora: 11:43 (15:43 UTC)

Pronòstic

L'informe es va fer fa 5 hores i 43 minuts, a les 10:00 UTC
Pronòstic vàlid del 01 a les 12 UTC al 02 a les 12 UTC
Vent 3 kt del Est/Sud-Est
Visibilitat 10 km o més
Núvols disperses a una alçada de 1600 ft
Evolucionant progressivament
l' 01 a les 12 UTC al 01 a les 16 UTC
Vent 3 kt del Est/Nord-Est
Visibilitat 10 km o més
Núvols disperses a una alçada de 3000 ft

TAF: SVMI 011000Z 0112/0212 11003KT 9999 SCT016 TX30/19Z TN23/09Z BECMG 0112/0116 07003KT 9999 SCT030

Observacions i pronòstics meteorològics de més de 4000 aeroports (METAR i TAF).

Les estacions disponibles són els punts grocs i vermells al mapa.

Posi el ratolí al punt desitjat per veure el nom de l'estació.

Feu clic per veure les observacions i els pronòstics meteorològics.

Per canviar el mapa: feu clic els botons verds amb una creu de color negre per apropar; al botó verd amb un guió per allunyar la imatge; o en les fletxes verdes per a mapes adjacents.


METAR-TAF: